createdAt,value
2022-12-18T00:00:20.934Z,58.70
2022-12-18T00:03:11.779Z,53.60
2022-12-18T00:05:56.065Z,60.20
2022-12-18T00:08:41.056Z,52.50
2022-12-18T00:11:27.795Z,52.10
2022-12-18T00:14:06.072Z,58.80
2022-12-18T00:16:47.961Z,58.20
2022-12-18T00:19:20.916Z,60.10
2022-12-18T00:21:59.680Z,56.60
2022-12-18T00:24:32.143Z,54.50
2022-12-18T00:27:07.433Z,60.80
2022-12-18T00:29:42.091Z,55.60
2022-12-18T00:32:14.202Z,60.20
2022-12-18T00:34:47.048Z,55.90
2022-12-18T00:37:20.385Z,59.30
2022-12-18T00:39:54.125Z,59.90
2022-12-18T00:42:47.393Z,61.60
2022-12-18T00:45:22.870Z,61.60
2022-12-18T00:47:57.624Z,59.60
2022-12-18T00:50:38.280Z,56.90
2022-12-18T00:53:15.414Z,56.40
2022-12-18T00:55:54.531Z,57.00
2022-12-18T00:58:26.622Z,62.00
2022-12-18T01:00:58.981Z,57.80
2022-12-18T01:03:31.933Z,63.60
2022-12-18T01:06:06.452Z,65.20
2022-12-18T01:08:39.874Z,63.10
2022-12-18T01:11:21.671Z,58.10
2022-12-18T01:13:57.200Z,68.50
2022-12-18T01:16:37.352Z,65.00
2022-12-18T01:19:20.462Z,57.80
2022-12-18T01:21:52.824Z,71.30
2022-12-18T01:24:22.756Z,63.50
2022-12-18T01:27:06.708Z,65.40
2022-12-18T01:29:38.602Z,73.40
2022-12-18T01:32:09.813Z,73.90
2022-12-18T01:34:44.871Z,70.60
2022-12-18T01:37:14.500Z,75.30
2022-12-18T01:39:44.229Z,74.50
2022-12-18T01:42:16.435Z,79.90
2022-12-18T01:45:24.359Z,74.90
2022-12-18T01:48:06.153Z,80.40
2022-12-18T01:50:44.476Z,75.80
2022-12-18T01:53:24.776Z,74.00
2022-12-18T01:56:01.369Z,70.20
2022-12-18T01:58:54.567Z,75.60
2022-12-18T02:01:30.217Z,68.70
2022-12-18T02:04:26.654Z,74.20
2022-12-18T02:07:21.601Z,67.00
2022-12-18T02:10:01.472Z,73.00
2022-12-18T02:13:16.172Z,69.40
2022-12-18T02:16:05.803Z,68.00
2022-12-18T02:18:55.419Z,73.20
2022-12-18T02:21:45.850Z,76.10
2022-12-18T02:25:00.419Z,72.60
2022-12-18T02:27:36.576Z,75.80
2022-12-18T02:30:17.609Z,70.20
2022-12-18T02:32:55.699Z,78.80
2022-12-18T02:35:30.805Z,71.10
2022-12-18T02:38:16.578Z,70.50
2022-12-18T02:40:56.631Z,68.80
2022-12-18T02:43:26.602Z,69.10
2022-12-18T02:46:21.953Z,76.40
2022-12-18T02:49:16.345Z,74.20
2022-12-18T02:52:13.240Z,74.70
2022-12-18T02:54:52.075Z,72.40
2022-12-18T02:57:55.152Z,69.20
2022-12-18T03:00:49.955Z,73.50
2022-12-18T03:04:15.141Z,73.50
2022-12-18T03:06:54.448Z,72.90
2022-12-18T03:09:38.259Z,72.30
2022-12-18T03:12:36.933Z,74.20
2022-12-18T03:15:27.770Z,71.50
2022-12-18T03:18:11.640Z,76.80
2022-12-18T03:20:45.894Z,73.80
2022-12-18T03:23:26.239Z,76.20
2022-12-18T03:26:07.591Z,79.10
2022-12-18T03:28:47.493Z,76.00
2022-12-18T03:31:19.074Z,82.40
2022-12-18T03:33:54.909Z,73.70
2022-12-18T03:36:29.219Z,71.10
2022-12-18T03:38:58.868Z,70.10
2022-12-18T03:41:34.998Z,78.20
2022-12-18T03:44:46.342Z,72.90
2022-12-18T03:47:28.917Z,70.00
2022-12-18T03:50:16.123Z,72.00
2022-12-18T03:53:01.588Z,66.10
2022-12-18T03:55:35.740Z,77.80
2022-12-18T03:58:09.584Z,78.60
2022-12-18T04:00:58.166Z,82.20
2022-12-18T04:03:33.253Z,96.40
2022-12-18T04:06:04.639Z,93.20
2022-12-18T04:08:36.443Z,98.50
2022-12-18T04:11:08.945Z,105.50
2022-12-18T04:13:40.424Z,99.10
2022-12-18T04:16:13.695Z,107.80
2022-12-18T04:18:44.127Z,112.10
2022-12-18T04:21:13.674Z,110.30
2022-12-18T04:23:45.529Z,96.10
2022-12-18T04:26:15.783Z,106.00
2022-12-18T04:28:55.738Z,102.90
2022-12-18T04:31:25.396Z,95.10
2022-12-18T04:33:56.737Z,86.80
2022-12-18T04:36:26.705Z,92.30
2022-12-18T04:38:57.106Z,100.70
2022-12-18T04:41:26.620Z,99.60
2022-12-18T04:43:59.006Z,98.00
2022-12-18T04:46:28.528Z,99.60
2022-12-18T04:48:58.205Z,98.90
2022-12-18T04:51:28.003Z,102.50
2022-12-18T04:53:57.408Z,101.60
2022-12-18T04:56:26.861Z,95.80
2022-12-18T04:58:56.018Z,109.60
2022-12-18T05:01:30.937Z,94.50
2022-12-18T05:04:04.596Z,99.30
2022-12-18T05:06:35.336Z,103.90
2022-12-18T05:09:04.911Z,94.60
2022-12-18T05:11:38.533Z,84.10
2022-12-18T05:14:08.313Z,90.90
2022-12-18T05:16:44.063Z,104.80
2022-12-18T05:19:13.909Z,98.30
2022-12-18T05:21:43.691Z,93.10
2022-12-18T05:24:13.555Z,85.70
2022-12-18T05:26:42.842Z,83.30
2022-12-18T05:29:14.140Z,78.40
2022-12-18T05:31:43.907Z,88.90
2022-12-18T05:34:14.652Z,87.10
2022-12-18T05:36:44.326Z,91.80
2022-12-18T05:39:13.989Z,91.90
2022-12-18T05:41:44.047Z,100.50
2022-12-18T05:44:21.867Z,104.20
2022-12-18T05:46:54.565Z,95.00
2022-12-18T05:49:26.864Z,93.60
2022-12-18T05:51:56.394Z,106.80
2022-12-18T05:54:30.196Z,93.90
2022-12-18T05:56:59.998Z,88.50
2022-12-18T05:59:29.417Z,88.40
2022-12-18T06:01:58.979Z,97.90
2022-12-18T06:04:32.101Z,93.00
2022-12-18T06:07:06.800Z,96.30
2022-12-18T06:09:36.290Z,103.50
2022-12-18T06:12:06.105Z,94.80
2022-12-18T06:14:35.241Z,100.70
2022-12-18T06:17:04.951Z,94.50
2022-12-18T06:19:34.748Z,96.60
2022-12-18T06:22:03.856Z,98.90
2022-12-18T06:24:34.346Z,95.60
2022-12-18T06:27:03.793Z,112.80
2022-12-18T06:29:34.399Z,100.60
2022-12-18T06:32:07.815Z,106.10
2022-12-18T06:34:42.036Z,101.40
2022-12-18T06:37:16.300Z,88.30
2022-12-18T06:39:48.787Z,89.70
2022-12-18T06:42:25.042Z,97.30
2022-12-18T06:44:55.904Z,93.40
2022-12-18T06:49:59.975Z,100.80
2022-12-18T06:52:29.292Z,108.70
2022-12-18T06:54:58.505Z,103.30
2022-12-18T06:57:27.954Z,102.30
2022-12-18T06:59:59.334Z,111.20
2022-12-18T07:02:28.985Z,113.70
2022-12-18T07:04:58.407Z,105.00
2022-12-18T07:07:36.969Z,104.20
2022-12-18T07:10:14.430Z,97.90
2022-12-18T07:12:45.960Z,92.20
2022-12-18T07:15:15.624Z,95.60
2022-12-18T07:17:47.934Z,104.90
2022-12-18T07:20:19.963Z,97.40
2022-12-18T07:22:54.706Z,88.30
2022-12-18T07:25:41.630Z,92.30
2022-12-18T07:28:17.287Z,104.40
2022-12-18T07:30:47.170Z,95.10
2022-12-18T07:33:17.675Z,99.70
2022-12-18T07:35:47.142Z,95.40
2022-12-18T07:38:16.397Z,100.30
2022-12-18T07:40:45.598Z,92.50
2022-12-18T07:43:14.981Z,97.80
2022-12-18T07:45:51.103Z,113.50
2022-12-18T07:48:20.662Z,107.30
2022-12-18T07:50:50.567Z,104.40
2022-12-18T07:53:20.184Z,95.10
2022-12-18T07:56:24.960Z,115.00
2022-12-18T07:58:39.027Z,101.30
2022-12-18T08:01:12.893Z,101.30
2022-12-18T08:03:45.523Z,107.10
2022-12-18T08:06:14.674Z,118.10
2022-12-18T08:08:44.117Z,102.80
2022-12-18T08:11:16.550Z,100.10
2022-12-18T08:13:48.310Z,112.10
2022-12-18T08:16:29.030Z,111.40
2022-12-18T08:19:07.585Z,116.20
2022-12-18T08:21:39.810Z,117.70
2022-12-18T08:24:12.103Z,116.20
2022-12-18T08:26:55.867Z,101.70
2022-12-18T08:29:34.921Z,113.90
2022-12-18T08:32:06.726Z,118.50
2022-12-18T08:34:39.268Z,134.50
2022-12-18T08:37:11.094Z,111.30
2022-12-18T08:39:40.331Z,129.30
2022-12-18T08:42:38.708Z,123.90
2022-12-18T08:45:09.090Z,109.40
2022-12-18T08:47:38.571Z,104.80
2022-12-18T08:50:08.754Z,102.80
2022-12-18T08:52:38.711Z,98.90
2022-12-18T08:55:11.780Z,98.70
2022-12-18T08:57:45.971Z,93.30
2022-12-18T09:00:23.173Z,100.70
2022-12-18T09:03:04.364Z,118.00
2022-12-18T09:05:35.173Z,127.90
2022-12-18T09:08:06.721Z,115.60
2022-12-18T09:10:55.757Z,109.00
2022-12-18T09:13:25.451Z,145.60
2022-12-18T09:15:56.938Z,113.40
2022-12-18T09:18:26.473Z,104.30
2022-12-18T09:20:57.475Z,99.30
2022-12-18T09:23:30.646Z,100.70
2022-12-18T09:26:03.244Z,107.20
2022-12-18T09:28:32.854Z,110.10
2022-12-18T09:31:08.968Z,117.20
2022-12-18T09:33:41.228Z,100.80
2022-12-18T09:36:15.525Z,97.10
2022-12-18T09:38:47.969Z,95.40
2022-12-18T09:41:47.046Z,92.40
2022-12-18T09:44:26.114Z,103.40
2022-12-18T09:47:17.515Z,100.50
2022-12-18T09:50:00.409Z,95.90
2022-12-18T09:52:46.356Z,107.10
2022-12-18T09:55:40.083Z,105.20
2022-12-18T09:58:20.891Z,98.50
2022-12-18T10:00:58.799Z,108.50
2022-12-18T10:03:31.362Z,110.20
2022-12-18T10:06:22.081Z,117.30
2022-12-18T10:09:20.533Z,110.20
2022-12-18T10:12:28.911Z,122.80
2022-12-18T10:15:30.082Z,95.10
2022-12-18T10:18:07.827Z,103.10
2022-12-18T10:20:47.394Z,96.90
2022-12-18T10:23:47.947Z,103.70
2022-12-18T10:26:17.889Z,95.50
2022-12-18T10:28:47.890Z,99.50
2022-12-18T10:31:25.081Z,109.40
2022-12-18T10:33:58.149Z,94.20
2022-12-18T10:36:29.224Z,107.00
2022-12-18T10:39:24.395Z,108.60
2022-12-18T10:42:13.935Z,105.40
2022-12-18T10:44:43.460Z,85.10
2022-12-18T10:47:21.042Z,82.80
2022-12-18T10:49:58.894Z,86.80
2022-12-18T10:52:28.730Z,101.10
2022-12-18T10:55:05.670Z,100.90
2022-12-18T10:57:46.506Z,100.40
2022-12-18T11:00:26.419Z,107.80
2022-12-18T11:03:00.758Z,101.40
2022-12-18T11:05:34.222Z,116.40
2022-12-18T11:08:07.195Z,111.60
2022-12-18T11:10:42.064Z,129.70
2022-12-18T11:13:23.242Z,107.30
2022-12-18T11:15:53.047Z,84.00
2022-12-18T11:18:37.315Z,82.90
2022-12-18T11:21:14.327Z,77.40
2022-12-18T11:23:55.312Z,86.00
2022-12-18T11:26:35.818Z,92.10
2022-12-18T11:29:18.991Z,91.50
2022-12-18T11:32:00.483Z,91.60
2022-12-18T11:35:42.261Z,104.50
2022-12-18T11:38:38.676Z,93.20
2022-12-18T11:41:58.554Z,85.40
2022-12-18T11:44:52.681Z,113.30
2022-12-18T11:47:40.418Z,85.20
2022-12-18T11:50:59.009Z,90.40
2022-12-18T11:53:31.423Z,86.60
2022-12-18T11:56:27.556Z,111.70
2022-12-18T11:59:23.822Z,101.00
2022-12-18T12:02:19.978Z,91.30
2022-12-18T12:05:16.743Z,92.20
2022-12-18T12:08:05.285Z,90.10
2022-12-18T12:11:17.301Z,80.20
2022-12-18T12:14:40.788Z,85.60
2022-12-18T12:17:26.470Z,89.50
2022-12-18T12:20:13.837Z,78.90
2022-12-18T12:23:09.184Z,78.90
2022-12-18T12:26:05.113Z,84.20
2022-12-18T12:29:01.283Z,84.70
2022-12-18T12:31:59.991Z,101.00
2022-12-18T12:35:17.908Z,83.30
2022-12-18T12:38:20.884Z,71.40
2022-12-18T12:41:02.722Z,87.60
2022-12-18T12:43:50.364Z,74.40
2022-12-18T12:46:25.320Z,66.50
2022-12-18T12:49:13.131Z,86.00
2022-12-18T12:51:53.522Z,76.40
2022-12-18T12:54:29.034Z,76.40
2022-12-18T12:57:21.169Z,86.60
2022-12-18T13:00:20.399Z,84.30
2022-12-18T13:03:17.332Z,84.00
2022-12-18T13:05:56.143Z,81.60
2022-12-18T13:08:35.446Z,84.80
2022-12-18T13:12:20.257Z,71.30
2022-12-18T13:14:51.285Z,76.40
2022-12-18T13:17:34.070Z,78.20
2022-12-18T13:20:12.704Z,75.30
2022-12-18T13:22:50.409Z,74.00
2022-12-18T13:25:38.750Z,92.00
2022-12-18T13:28:15.541Z,85.60
2022-12-18T13:30:49.958Z,89.10
2022-12-18T13:33:24.020Z,80.00
2022-12-18T13:36:18.978Z,81.80
2022-12-18T13:39:28.621Z,86.20
2022-12-18T13:42:09.164Z,86.50
2022-12-18T13:44:42.842Z,84.20
2022-12-18T13:47:34.917Z,95.80
2022-12-18T13:50:32.290Z,99.60
2022-12-18T13:53:08.361Z,87.90
2022-12-18T13:55:38.263Z,93.50
2022-12-18T13:58:24.964Z,93.60
2022-12-18T14:00:54.753Z,102.20
2022-12-18T14:03:31.906Z,88.80
2022-12-18T14:06:09.493Z,87.00
2022-12-18T14:08:52.517Z,110.20
2022-12-18T14:11:24.881Z,109.10
2022-12-18T14:13:55.890Z,108.00
2022-12-18T14:16:25.459Z,116.00
2022-12-18T14:19:04.096Z,103.90
2022-12-18T14:21:46.643Z,96.70
2022-12-18T14:24:21.402Z,102.90
2022-12-18T14:26:52.087Z,89.80
2022-12-18T14:29:29.931Z,95.90
2022-12-18T14:32:17.755Z,83.20
2022-12-18T14:34:57.689Z,83.80
2022-12-18T14:37:28.548Z,88.60
2022-12-18T14:40:12.268Z,94.20
2022-12-18T14:42:44.054Z,108.40
2022-12-18T14:45:42.209Z,92.20
2022-12-18T14:48:23.098Z,100.10
2022-12-18T14:51:05.841Z,94.80
2022-12-18T14:53:52.098Z,96.80
2022-12-18T14:56:33.094Z,88.40
2022-12-18T14:59:24.931Z,96.40
2022-12-18T15:02:26.497Z,92.40
2022-12-18T15:05:17.386Z,99.20
2022-12-18T15:07:55.965Z,173.00
2022-12-18T15:10:34.107Z,114.40
2022-12-18T15:13:10.098Z,101.30
2022-12-18T15:15:39.218Z,115.00
2022-12-18T15:18:08.300Z,101.50
2022-12-18T15:20:49.610Z,131.80
2022-12-18T15:23:37.579Z,130.40
2022-12-18T15:26:10.045Z,132.20
2022-12-18T15:28:47.938Z,94.10
2022-12-18T15:31:26.400Z,94.00
2022-12-18T15:33:55.445Z,100.50
2022-12-18T15:36:26.680Z,98.00
2022-12-18T15:39:04.929Z,108.90
2022-12-18T15:41:37.533Z,125.90
2022-12-18T15:44:26.575Z,108.80
2022-12-18T15:46:55.520Z,104.30
2022-12-18T15:49:24.648Z,98.60
2022-12-18T15:51:58.578Z,97.80
2022-12-18T15:54:46.689Z,81.60
2022-12-18T15:57:25.013Z,145.20
2022-12-18T16:00:00.457Z,109.30
2022-12-18T16:02:29.974Z,140.40
2022-12-18T16:04:59.239Z,92.80
2022-12-18T16:07:30.575Z,90.20
2022-12-18T16:10:00.351Z,97.20
2022-12-18T16:12:32.181Z,96.60
2022-12-18T16:15:01.079Z,79.50
2022-12-18T16:17:32.871Z,92.90
2022-12-18T16:20:04.590Z,114.70
2022-12-18T16:22:33.535Z,113.80
2022-12-18T16:25:18.943Z,105.00
2022-12-18T16:27:48.751Z,109.90
2022-12-18T16:30:23.377Z,99.80
2022-12-18T16:32:57.058Z,99.30
2022-12-18T16:35:27.902Z,107.80
2022-12-18T16:37:57.101Z,96.40
2022-12-18T16:40:26.456Z,90.60
2022-12-18T16:42:58.677Z,97.70
2022-12-18T16:45:34.293Z,96.40
2022-12-18T16:48:07.529Z,86.20
2022-12-18T16:50:39.765Z,92.60
2022-12-18T16:53:09.277Z,100.10
2022-12-18T16:55:38.377Z,93.10
2022-12-18T16:58:07.288Z,93.50
2022-12-18T17:00:39.262Z,94.40
2022-12-18T17:03:08.912Z,85.60
2022-12-18T17:05:41.634Z,92.70
2022-12-18T17:08:12.947Z,125.40
2022-12-18T17:10:42.833Z,104.10
2022-12-18T17:13:11.836Z,97.30
2022-12-18T17:15:41.038Z,79.20
2022-12-18T17:18:10.000Z,79.10
2022-12-18T17:20:39.016Z,71.20
2022-12-18T17:23:08.506Z,79.80
2022-12-18T17:25:40.931Z,73.00
2022-12-18T17:28:10.144Z,79.10
2022-12-18T17:30:41.677Z,77.10
2022-12-18T17:33:11.175Z,84.10
2022-12-18T17:35:42.321Z,79.00
2022-12-18T17:38:13.887Z,82.60
2022-12-18T17:40:46.455Z,91.50
2022-12-18T17:43:15.876Z,100.50
2022-12-18T17:45:45.340Z,94.30
2022-12-18T17:48:14.477Z,85.30
2022-12-18T17:50:46.023Z,93.30
2022-12-18T17:53:15.591Z,79.90
2022-12-18T17:55:44.911Z,77.80
2022-12-18T17:58:14.461Z,79.90
2022-12-18T18:00:46.309Z,88.20
2022-12-18T18:03:20.567Z,86.20
2022-12-18T18:06:02.881Z,78.40
2022-12-18T18:08:33.423Z,80.70
2022-12-18T18:11:34.622Z,79.60
2022-12-18T18:14:14.695Z,77.20
2022-12-18T18:16:48.958Z,85.50
2022-12-18T18:19:22.843Z,90.40
2022-12-18T18:21:54.662Z,93.20
2022-12-18T18:24:25.842Z,88.30
2022-12-18T18:26:56.227Z,91.00
2022-12-18T18:29:29.228Z,97.30
2022-12-18T18:32:01.956Z,96.40
2022-12-18T18:34:32.819Z,104.70
2022-12-18T18:37:04.199Z,101.90
2022-12-18T18:39:37.184Z,119.50
2022-12-18T18:42:06.844Z,95.80
2022-12-18T18:44:37.664Z,106.80
2022-12-18T18:47:22.186Z,112.00
2022-12-18T18:50:05.573Z,131.20
2022-12-18T18:52:34.972Z,109.20
2022-12-18T18:55:22.012Z,130.70
2022-12-18T18:57:58.942Z,121.10
2022-12-18T19:00:33.253Z,118.30
2022-12-18T19:03:02.970Z,118.70
2022-12-18T19:05:34.280Z,105.00
2022-12-18T19:08:03.571Z,99.10
2022-12-18T19:10:32.739Z,101.60
2022-12-18T19:13:20.272Z,99.50
2022-12-18T19:15:49.678Z,120.00
2022-12-18T19:18:19.387Z,118.50
2022-12-18T19:21:07.411Z,121.40
2022-12-18T19:23:36.597Z,102.60
2022-12-18T19:26:27.625Z,110.20
2022-12-18T19:29:11.149Z,109.50
2022-12-18T19:31:41.053Z,108.90
2022-12-18T19:34:13.002Z,108.10
2022-12-18T19:36:59.752Z,113.20
2022-12-18T19:39:29.906Z,107.00
2022-12-18T19:42:04.898Z,97.00
2022-12-18T19:44:37.259Z,96.80
2022-12-18T19:47:09.823Z,99.70
2022-12-18T19:49:39.108Z,89.20
2022-12-18T19:52:08.487Z,100.50
2022-12-18T19:54:49.798Z,97.20
2022-12-18T19:57:19.768Z,97.90
2022-12-18T19:59:59.776Z,105.30
2022-12-18T20:02:29.375Z,102.40
2022-12-18T20:04:59.495Z,109.30
2022-12-18T20:07:28.424Z,115.10
2022-12-18T20:10:08.498Z,109.50
2022-12-18T20:12:41.018Z,96.10
2022-12-18T20:15:11.016Z,88.80
2022-12-18T20:17:40.107Z,94.10
2022-12-18T20:20:10.533Z,97.90
2022-12-18T20:22:40.067Z,96.60
2022-12-18T20:25:09.525Z,106.70
2022-12-18T20:27:41.324Z,103.80
2022-12-18T20:30:15.318Z,93.60
2022-12-18T20:32:49.229Z,103.10
2022-12-18T20:35:18.613Z,92.30
2022-12-18T20:37:56.108Z,97.10
2022-12-18T20:40:26.783Z,98.60
2022-12-18T20:42:55.715Z,103.20
2022-12-18T20:45:25.082Z,97.50
2022-12-18T20:47:58.241Z,104.90
2022-12-18T20:50:27.736Z,111.10
2022-12-18T20:52:56.727Z,119.80
2022-12-18T20:55:28.004Z,117.20
2022-12-18T20:57:58.270Z,112.30
2022-12-18T21:00:27.250Z,118.00
2022-12-18T21:02:56.913Z,111.60
2022-12-18T21:05:27.324Z,121.30
2022-12-18T21:07:56.254Z,106.40
2022-12-18T21:10:27.609Z,117.00
2022-12-18T21:13:00.221Z,118.40
2022-12-18T21:15:36.256Z,123.10
2022-12-18T21:18:08.733Z,115.30
2022-12-18T21:23:30.506Z,122.20
2022-12-18T21:26:32.061Z,119.50
2022-12-18T21:29:08.330Z,120.40
2022-12-18T21:31:39.082Z,119.70
2022-12-18T21:34:23.224Z,113.20
2022-12-18T21:36:58.053Z,115.10
2022-12-18T21:39:31.052Z,110.90
2022-12-18T21:42:20.337Z,111.20
2022-12-18T21:44:50.882Z,117.50
2022-12-18T21:47:23.527Z,108.80
2022-12-18T21:50:06.004Z,105.20
2022-12-18T21:52:37.724Z,105.50
2022-12-18T21:55:11.859Z,104.10
2022-12-18T21:57:46.490Z,99.20
2022-12-18T22:00:18.321Z,105.50
2022-12-18T22:03:17.174Z,104.50
2022-12-18T22:05:42.962Z,104.50
2022-12-18T22:08:21.247Z,103.90
2022-12-18T22:10:55.321Z,109.40
2022-12-18T22:13:26.356Z,96.70
2022-12-18T22:15:58.157Z,107.50
2022-12-18T22:18:29.800Z,106.80
2022-12-18T22:21:21.793Z,104.40
2022-12-18T22:24:01.484Z,109.10
2022-12-18T22:26:39.559Z,103.80
2022-12-18T22:29:39.244Z,98.10
2022-12-18T22:32:29.071Z,104.30
2022-12-18T22:35:10.665Z,107.30
2022-12-18T22:37:45.006Z,92.30
2022-12-18T22:40:26.938Z,93.80
2022-12-18T22:43:01.758Z,103.80
2022-12-18T22:45:35.745Z,96.70
2022-12-18T22:48:10.202Z,93.90
2022-12-18T22:50:42.969Z,101.10
2022-12-18T22:53:12.558Z,93.70
2022-12-18T22:55:43.881Z,92.60
2022-12-18T22:58:22.662Z,99.20
2022-12-18T23:00:56.841Z,103.80
2022-12-18T23:03:35.613Z,95.60
2022-12-18T23:06:09.810Z,100.40
2022-12-18T23:08:42.464Z,100.40
2022-12-18T23:11:13.174Z,90.00
2022-12-18T23:13:47.024Z,93.00
2022-12-18T23:16:40.393Z,94.80
2022-12-18T23:19:15.101Z,96.00
2022-12-18T23:21:44.680Z,94.10
2022-12-18T23:24:18.794Z,90.80
2022-12-18T23:26:50.919Z,85.00
2022-12-18T23:29:23.165Z,90.10
2022-12-18T23:31:52.156Z,88.30
2022-12-18T23:34:29.313Z,86.00
2022-12-18T23:37:05.580Z,83.30
2022-12-18T23:39:39.972Z,84.60
2022-12-18T23:42:14.907Z,80.80
2022-12-18T23:44:48.486Z,83.80
2022-12-18T23:47:23.771Z,81.40
2022-12-18T23:49:58.171Z,90.80
2022-12-18T23:52:32.941Z,80.90
2022-12-18T23:55:13.498Z,83.10
2022-12-18T23:57:47.843Z,83.20
